TimeEST,TemperatureF,Dew PointF,Humidity,Sea Level PressureIn,VisibilityMPH,Wind Direction,Wind SpeedMPH,Gust SpeedMPH,PrecipitationIn,Events,Conditions,WindDirDegrees,DateUTC
12:15 AM,46.4,42.8,87,30.00,10.0,Calm,Calm,-,N/A,,Clear,0,2012-11-04 04:15:00
12:35 AM,46.4,42.8,87,30.00,10.0,Calm,Calm,-,N/A,,Clear,0,2012-11-04 04:35:00
12:55 AM,46.4,42.8,87,30.00,10.0,Calm,Calm,-,N/A,,Clear,0,2012-11-04 04:55:00
1:15 AM,46.4,41.0,81,30.00,10.0,Calm,Calm,-,N/A,,Clear,0,2012-11-04 05:15:00
1:35 AM,46.4,41.0,81,29.99,10.0,Calm,Calm,-,N/A,,Clear,0,2012-11-04 05:35:00
1:55 AM,46.4,42.8,87,29.99,10.0,Calm,Calm,-,N/A,,Clear,0,2012-11-04 05:55:00
1:15 AM,46.4,44.6,93,29.99,10.0,Calm,Calm,-,N/A,,Clear,0,2012-11-04 06:15:00
1:35 AM,46.4,44.6,93,29.99,10.0,Calm,Calm,-,N/A,,Clear,0,2012-11-04 06:35:00
1:55 AM,46.4,44.6,93,29.98,10.0,Calm,Calm,-,N/A,,Clear,0,2012-11-04 06:55:00
2:15 AM,46.4,44.6,93,29.98,10.0,Calm,Calm,-,N/A,,Clear,0,2012-11-04 07:15:00
2:35 AM,44.6,44.6,100,29.97,10.0,Calm,Calm,-,N/A,,Clear,0,2012-11-04 07:35:00
2:55 AM,44.6,44.6,100,29.97,10.0,NNE,3.5,-,N/A,,Clear,30,2012-11-04 07:55:00
3:15 AM,46.4,46.4,100,29.98,10.0,Calm,Calm,-,N/A,,Clear,0,2012-11-04 08:15:00
3:35 AM,46.4,44.6,93,29.97,10.0,Calm,Calm,-,N/A,,Clear,0,2012-11-04 08:35:00
3:55 AM,44.6,44.6,100,29.97,10.0,NE,3.5,-,N/A,,Clear,40,2012-11-04 08:55:00
4:15 AM,44.6,44.6,100,29.96,10.0,Calm,Calm,-,N/A,,Clear,0,2012-11-04 09:15:00
4:35 AM,44.6,44.6,100,29.96,10.0,Calm,Calm,-,N/A,,Clear,0,2012-11-04 09:35:00
4:55 AM,44.6,44.6,100,29.96,10.0,Calm,Calm,-,N/A,,Clear,0,2012-11-04 09:55:00
5:15 AM,44.6,44.6,100,29.97,10.0,Calm,Calm,-,N/A,,Clear,0,2012-11-04 10:15:00
5:35 AM,46.4,46.4,100,29.98,10.0,NNE,3.5,-,N/A,,Clear,20,2012-11-04 10:35:00
5:55 AM,46.4,46.4,100,29.97,10.0,Calm,Calm,-,N/A,,Clear,0,2012-11-04 10:55:00
6:15 AM,46.4,44.6,93,29.98,10.0,NNE,3.5,-,N/A,,Clear,30,2012-11-04 11:15:00
6:35 AM,46.4,44.6,93,29.99,10.0,North,3.5,-,N/A,,Clear,360,2012-11-04 11:35:00
6:55 AM,46.4,44.6,93,29.99,10.0,NNE,3.5,-,N/A,,Clear,20,2012-11-04 11:55:00
7:15 AM,44.6,42.8,93,30.00,10.0,North,3.5,-,N/A,,Clear,10,2012-11-04 12:15:00
7:35 AM,44.6,44.6,100,30.01,10.0,NNE,3.5,-,N/A,,Clear,20,2012-11-04 12:35:00
7:55 AM,46.4,44.6,93,30.01,10.0,NE,3.5,-,N/A,,Clear,50,2012-11-04 12:55:00
8:15 AM,48.2,44.6,87,30.02,10.0,NNE,4.6,-,N/A,,Clear,30,2012-11-04 13:15:00
8:35 AM,48.2,44.6,87,30.01,10.0,NNE,5.8,-,N/A,,Clear,30,2012-11-04 13:35:00
8:55 AM,50.0,44.6,82,30.01,10.0,NNE,6.9,-,N/A,,Clear,30,2012-11-04 13:55:00
9:15 AM,53.6,44.6,72,30.00,10.0,NNE,3.5,-,N/A,,Clear,30,2012-11-04 14:15:00
9:35 AM,55.4,44.6,67,30.00,10.0,North,4.6,-,N/A,,Clear,360,2012-11-04 14:35:00
9:55 AM,57.2,44.6,63,29.99,10.0,NE,3.5,-,N/A,,Clear,50,2012-11-04 14:55:00
10:15 AM,59.0,44.6,59,29.99,10.0,North,4.6,-,N/A,,Clear,360,2012-11-04 15:15:00
10:35 AM,59.0,44.6,59,30.00,10.0,Calm,Calm,-,N/A,,Clear,0,2012-11-04 15:35:00
10:55 AM,60.8,44.6,55,30.00,10.0,WNW,3.5,-,N/A,,Clear,290,2012-11-04 15:55:00
11:15 AM,62.6,44.6,52,29.99,10.0,West,4.6,-,N/A,,Clear,280,2012-11-04 16:15:00
11:35 AM,62.6,44.6,52,29.99,10.0,NNW,4.6,-,N/A,,Clear,340,2012-11-04 16:35:00
11:55 AM,62.6,44.6,52,29.98,10.0,NE,3.5,-,N/A,,Clear,50,2012-11-04 16:55:00
12:15 PM,64.4,42.8,45,29.97,10.0,Calm,Calm,-,N/A,,Clear,0,2012-11-04 17:15:00
12:35 PM,64.4,44.6,49,29.97,10.0,Calm,Calm,-,N/A,,Clear,0,2012-11-04 17:35:00
12:55 PM,64.4,44.6,49,29.96,10.0,Calm,Calm,-,N/A,,Clear,0,2012-11-04 17:55:00
1:15 PM,66.2,44.6,46,29.95,10.0,ENE,4.6,-,N/A,,Clear,60,2012-11-04 18:15:00
1:35 PM,64.4,44.6,49,29.95,10.0,Calm,Calm,-,N/A,,Clear,0,2012-11-04 18:35:00
1:55 PM,66.2,44.6,46,29.95,10.0,Calm,Calm,-,N/A,,Clear,0,2012-11-04 18:55:00
2:15 PM,66.2,44.6,46,29.95,10.0,Calm,Calm,-,N/A,,Clear,0,2012-11-04 19:15:00
2:35 PM,66.2,44.6,46,29.95,10.0,Calm,Calm,-,N/A,,Clear,0,2012-11-04 19:35:00
2:55 PM,66.2,44.6,46,29.95,10.0,Calm,Calm,-,N/A,,Clear,0,2012-11-04 19:55:00
3:15 PM,66.2,44.6,46,29.95,10.0,North,4.6,-,N/A,,Clear,360,2012-11-04 20:15:00
3:35 PM,64.4,44.6,49,29.94,10.0,NNE,5.8,-,N/A,,Clear,20,2012-11-04 20:35:00
3:55 PM,64.4,44.6,49,29.94,10.0,NNE,5.8,-,N/A,,Clear,20,2012-11-04 20:55:00
4:15 PM,64.4,44.6,49,29.94,10.0,NE,3.5,-,N/A,,Clear,40,2012-11-04 21:15:00
4:35 PM,62.6,46.4,55,29.94,10.0,Calm,Calm,-,N/A,,Clear,0,2012-11-04 21:35:00
4:55 PM,60.8,46.4,59,29.93,10.0,Calm,Calm,-,N/A,,Clear,0,2012-11-04 21:55:00
5:15 PM,60.8,46.4,59,29.94,10.0,Calm,Calm,-,N/A,,Clear,0,2012-11-04 22:15:00
5:35 PM,59.0,46.4,63,29.93,10.0,NE,3.5,-,N/A,,Clear,50,2012-11-04 22:35:00
5:55 PM,59.0,48.2,67,29.94,9.0,Calm,Calm,-,N/A,Rain,Light Rain,0,2012-11-04 22:55:00
6:15 PM,53.6,53.6,100,29.97,3.0,Calm,Calm,-,N/A,Rain-Thunderstorm,Light Rain,0,2012-11-04 23:15:00
6:35 PM,53.6,53.6,100,29.97,2.5,SE,3.5,-,N/A,Rain,Light Rain,130,2012-11-04 23:35:00
6:55 PM,53.6,53.6,100,29.97,5.0,Calm,Calm,-,N/A,Rain,Light Rain,0,2012-11-04 23:55:00
7:15 PM,53.6,53.6,100,29.97,7.0,ESE,3.5,-,N/A,Rain,Light Rain,110,2012-11-05 00:15:00
7:35 PM,51.8,51.8,100,29.97,7.0,East,3.5,-,N/A,Rain,Light Rain,90,2012-11-05 00:35:00
7:55 PM,51.8,51.8,100,29.97,9.0,East,3.5,-,N/A,,Scattered Clouds,80,2012-11-05 00:55:00
8:15 PM,51.8,51.8,100,29.98,9.0,Calm,Calm,-,N/A,Rain,Light Rain,0,2012-11-05 01:15:00
8:35 PM,51.8,51.8,100,29.98,6.0,Calm,Calm,-,N/A,Rain,Light Rain,0,2012-11-05 01:35:00
8:55 PM,51.8,51.8,100,29.98,9.0,East,3.5,-,N/A,Rain,Light Rain,80,2012-11-05 01:55:00
9:15 PM,51.8,51.8,100,29.98,8.0,East,3.5,-,N/A,Rain,Light Rain,80,2012-11-05 02:15:00
9:35 PM,51.8,51.8,100,29.98,9.0,Calm,Calm,-,N/A,Rain,Light Rain,0,2012-11-05 02:35:00
9:55 PM,50.0,50.0,100,29.98,9.0,Calm,Calm,-,N/A,Rain,Light Rain,0,2012-11-05 02:55:00
10:15 PM,50.0,50.0,100,29.98,8.0,Calm,Calm,-,N/A,Rain,Light Rain,0,2012-11-05 03:15:00
10:35 PM,50.0,50.0,100,29.99,9.0,NE,3.5,-,N/A,Rain,Light Rain,50,2012-11-05 03:35:00
10:55 PM,50.0,50.0,100,29.99,10.0,Calm,Calm,-,N/A,Rain,Light Rain,0,2012-11-05 03:55:00